Time;durP1;ratioP1;P1;durP2;ratioP2;P2;SDS_P1;SDS_P2;PMS_P1;PMS_P2;Temp;Humidity;BMP_temperature;BMP_pressure;BME280_temperature;BME280_humidity;BME280_pressure;Samples;Min_cycle;Max_cycle;Signal;HPM_P1;HPM_P2
2022/07/09 00:00:48;;;;;;;7.82;7.03;;;17.40;99.90;;;;;;5019523;28;20022;-67
2022/07/09 00:03:13;;;;;;;8.57;7.68;;;17.40;99.90;;;;;;4993604;28;20025;-67
2022/07/09 00:05:39;;;;;;;9.55;6.85;;;19.10;99.90;;;;;;5011009;28;20041;-67
2022/07/09 00:08:05;;;;;;;9.65;7.47;;;17.30;99.90;;;;;;5011207;28;20020;-67
2022/07/09 00:10:30;;;;;;;9.32;7.25;;;17.50;99.90;;;;;;5011818;28;20034;-67
2022/07/09 00:12:56;;;;;;;12.98;8.45;;;17.30;99.90;;;;;;5011607;28;20101;-67
2022/07/09 00:15:22;;;;;;;9.07;8.18;;;17.20;99.90;;;;;;5011150;28;20169;-67
2022/07/09 00:17:47;;;;;;;11.52;8.00;;;17.30;99.90;;;;;;5011448;28;20061;-67
2022/07/09 00:20:13;;;;;;;9.48;8.32;;;17.20;99.90;;;;;;5010503;28;20100;-67
2022/07/09 00:22:38;;;;;;;9.35;8.05;;;17.20;99.90;;;;;;5011270;28;20018;-67
2022/07/09 00:25:04;;;;;;;9.07;8.07;;;17.20;99.90;;;;;;5010885;28;20041;-66
2022/07/09 00:27:30;;;;;;;8.45;7.65;;;17.10;99.90;;;;;;5011618;28;20036;-67
2022/07/09 00:29:55;;;;;;;12.30;9.18;;;17.20;99.90;;;;;;5011605;28;20025;-67
2022/07/09 00:32:21;;;;;;;10.05;7.82;;;17.00;99.90;;;;;;5010947;28;20018;-67
2022/07/09 00:34:46;;;;;;;9.65;8.52;;;17.00;99.90;;;;;;4993099;28;20033;-67
2022/07/09 00:37:12;;;;;;;13.50;9.65;;;17.00;99.90;;;;;;5010723;28;20029;-67
2022/07/09 00:39:38;;;;;;;11.18;9.10;;;17.00;99.90;;;;;;5011163;28;20045;-67
2022/07/09 00:42:08;;;;;;;10.40;8.90;;;17.00;99.90;;;;;;5010746;28;20438;-66
2022/07/09 00:44:34;;;;;;;16.10;9.48;;;;;;;;;;5011006;28;20081;-66
2022/07/09 00:47:00;;;;;;;10.77;9.18;;;16.90;99.90;;;;;;5010693;28;20097;-67
2022/07/09 00:49:28;;;;;;;10.27;9.25;;;17.00;99.90;;;;;;5010822;28;20025;-66
2022/07/09 00:51:55;;;;;;;11.82;9.77;;;18.10;99.90;;;;;;5010782;28;20018;-66
2022/07/09 00:54:21;;;;;;;10.75;8.98;;;16.90;99.90;;;;;;5010625;28;20097;-66
2022/07/09 00:56:47;;;;;;;10.07;9.07;;;16.90;99.90;;;;;;5010841;28;20026;-66
2022/07/09 00:59:13;;;;;;;10.35;9.13;;;17.00;99.90;;;;;;5010749;28;20429;-66
2022/07/09 01:01:39;;;;;;;11.48;9.73;;;16.70;99.90;;;;;;5010716;28;20021;-66
2022/07/09 01:04:06;;;;;;;11.38;9.45;;;16.80;99.90;;;;;;5009842;28;20042;-66
2022/07/09 01:06:33;;;;;;;19.05;10.50;;;16.70;99.90;;;;;;5010741;28;20018;-66
2022/07/09 01:08:59;;;;;;;13.50;9.07;;;16.80;99.90;;;;;;5010256;28;20097;-66
2022/07/09 01:11:24;;;;;;;15.85;9.82;;;17.30;99.90;;;;;;5009806;28;20149;-66
2022/07/09 01:13:51;;;;;;;10.63;9.10;;;16.70;99.90;;;;;;4992786;28;20022;-66
2022/07/09 01:16:16;;;;;;;10.30;9.20;;;17.00;99.90;;;;;;4992659;28;20025;-66
2022/07/09 01:18:46;;;;;;;13.27;9.35;;;16.50;99.90;;;;;;5009678;28;20042;-66
2022/07/09 01:21:14;;;;;;;12.82;9.82;;;16.70;99.90;;;;;;5010216;28;20054;-66
2022/07/09 01:23:40;;;;;;;10.88;9.68;;;16.60;99.90;;;;;;5010346;28;20033;-66
2022/07/09 01:26:06;;;;;;;14.88;9.52;;;16.50;99.90;;;;;;5010089;28;20033;-66
2022/07/09 01:28:32;;;;;;;10.77;9.32;;;16.60;99.90;;;;;;5010495;28;20037;-67
2022/07/09 01:30:57;;;;;;;11.90;9.27;;;16.70;99.90;;;;;;5009999;28;20029;-67
2022/07/09 01:33:24;;;;;;;10.68;9.57;;;16.30;99.90;;;;;;5009489;28;20539;-67
2022/07/09 01:35:49;;;;;;;11.18;9.70;;;16.50;99.90;;;;;;5010036;28;20095;-66
2022/07/09 01:38:15;;;;;;;12.18;10.25;;;16.30;99.90;;;;;;5010255;28;20490;-67
2022/07/09 01:40:40;;;;;;;11.00;9.38;;;16.30;99.90;;;;;;5009933;28;20034;-66
2022/07/09 01:43:06;;;;;;;11.25;10.23;;;16.30;99.90;;;;;;5009869;28;20034;-67
2022/07/09 01:45:32;;;;;;;12.52;10.18;;;16.00;99.90;;;;;;5010090;28;20070;-67
2022/07/09 01:47:57;;;;;;;16.30;11.35;;;16.20;99.90;;;;;;5009152;28;20040;-67
2022/07/09 01:50:23;;;;;;;12.95;10.07;;;16.20;99.90;;;;;;5009402;28;20030;-67
2022/07/09 01:52:50;;;;;;;14.52;12.60;;;16.10;99.90;;;;;;5009730;28;20026;-67
2022/07/09 01:55:16;;;;;;;13.80;11.07;;;;;;;;;;5009822;28;20137;-67
2022/07/09 01:57:41;;;;;;;14.57;11.50;;;16.00;99.90;;;;;;5010056;28;20428;-66
2022/07/09 02:00:07;;;;;;;16.45;11.10;;;15.90;99.90;;;;;;5009756;28;20026;-67
2022/07/09 02:02:33;;;;;;;12.57;11.30;;;16.00;99.90;;;;;;5009865;28;20030;-67
2022/07/09 02:04:59;;;;;;;15.00;11.23;;;;;;;;;;5009278;28;20030;-67
2022/07/09 02:07:24;;;;;;;13.60;12.25;;;16.00;99.90;;;;;;5009868;28;20022;-67
2022/07/09 02:09:50;;;;;;;13.43;12.02;;;15.90;99.90;;;;;;5009493;28;20034;-67
2022/07/09 02:12:17;;;;;;;15.13;10.82;;;15.70;99.90;;;;;;5009982;28;20487;-67
2022/07/09 02:14:42;;;;;;;12.57;11.32;;;15.70;99.90;;;;;;5009358;28;20038;-67
2022/07/09 02:17:08;;;;;;;11.77;10.20;;;15.60;99.90;;;;;;5008880;28;20033;-67
2022/07/09 02:19:33;;;;;;;13.35;11.35;;;15.70;99.90;;;;;;5009425;28;20058;-67
2022/07/09 02:21:59;;;;;;;14.30;12.75;;;15.60;99.90;;;;;;5009011;28;20112;-67
2022/07/09 02:24:24;;;;;;;13.52;10.68;;;15.80;99.90;;;;;;5009547;28;20136;-67
2022/07/09 02:26:50;;;;;;;12.48;11.38;;;15.60;99.90;;;;;;5009228;28;20037;-67
2022/07/09 02:29:15;;;;;;;11.55;10.20;;;15.60;99.90;;;;;;5009407;28;20026;-67
2022/07/09 02:31:41;;;;;;;12.15;10.05;;;15.80;99.90;;;;;;5008688;28;20047;-66
2022/07/09 02:34:07;;;;;;;10.90;9.80;;;;;;;;;;5007912;28;20022;-67
2022/07/09 02:36:32;;;;;;;10.30;9.38;;;15.50;99.90;;;;;;5009569;28;20029;-67
2022/07/09 02:38:58;;;;;;;11.75;9.80;;;16.00;99.90;;;;;;5009174;28;20026;-67
2022/07/09 02:41:24;;;;;;;10.13;9.13;;;15.50;99.90;;;;;;5009469;28;20034;-67
2022/07/09 02:43:49;;;;;;;11.13;9.50;;;15.60;99.90;;;;;;5009086;28;20394;-67
2022/07/09 02:46:15;;;;;;;10.55;9.50;;;15.60;99.90;;;;;;5008639;28;20030;-67
2022/07/09 02:48:40;;;;;;;10.93;8.98;;;15.50;99.90;;;;;;5009193;28;20091;-67
2022/07/09 02:51:06;;;;;;;10.52;9.45;;;15.50;99.90;;;;;;5009039;28;20026;-67
2022/07/09 02:53:32;;;;;;;10.82;9.82;;;15.50;99.90;;;;;;5009218;28;20026;-67
2022/07/09 02:55:57;;;;;;;10.35;9.15;;;15.50;99.90;;;;;;5009015;28;20471;-66
2022/07/09 02:58:23;;;;;;;10.25;9.20;;;15.50;99.90;;;;;;5009056;28;20104;-67
2022/07/09 03:00:48;;;;;;;11.18;9.98;;;15.20;99.90;;;;;;5008492;28;20384;-67
2022/07/09 03:03:14;;;;;;;10.80;8.95;;;15.30;99.90;;;;;;5008838;28;20368;-67
2022/07/09 03:05:40;;;;;;;10.93;9.75;;;15.50;99.90;;;;;;5009001;28;20044;-67
2022/07/09 03:08:08;;;;;;;11.00;9.95;;;15.50;99.90;;;;;;5008767;28;20030;-67
2022/07/09 03:10:33;;;;;;;9.82;8.82;;;15.30;99.90;;;;;;5009197;28;20045;-67
2022/07/09 03:13:00;;;;;;;13.45;9.80;;;15.40;99.90;;;;;;5008697;28;20044;-67
2022/07/09 03:15:25;;;;;;;13.60;9.98;;;15.40;99.90;;;;;;5008612;28;20511;-67
2022/07/09 03:17:51;;;;;;;10.77;9.68;;;15.70;99.90;;;;;;5008933;28;20104;-67
2022/07/09 03:20:16;;;;;;;11.02;9.95;;;15.80;99.90;;;;;;5008549;28;20124;-67
2022/07/09 03:22:42;;;;;;;11.40;10.27;;;15.40;99.90;;;;;;5008924;28;20029;-67
2022/07/09 03:25:08;;;;;;;10.98;9.80;;;15.60;99.90;;;;;;5008651;28;20120;-67
2022/07/09 03:27:34;;;;;;;11.85;10.35;;;;;;;;;;5008894;28;20073;-67
2022/07/09 03:30:01;;;;;;;12.25;10.30;;;15.90;99.90;;;;;;5007970;28;20029;-67
2022/07/09 03:32:27;;;;;;;12.23;10.98;;;15.80;99.90;;;;;;5009020;28;20487;-67
2022/07/09 03:34:52;;;;;;;19.77;12.32;;;16.10;99.90;;;;;;5011412;28;20022;-67
2022/07/09 03:37:19;;;;;;;22.02;13.60;;;15.90;99.90;;;;;;5012241;28;20030;-67
2022/07/09 03:39:44;;;;;;;17.08;12.23;;;15.90;99.90;;;;;;5012308;28;20056;-67
2022/07/09 03:42:11;;;;;;;15.43;13.07;;;16.10;99.90;;;;;;5012106;28;20062;-67
2022/07/09 03:44:37;;;;;;;15.98;11.48;;;16.00;99.90;;;;;;5011791;28;20030;-67
2022/07/09 03:47:03;;;;;;;14.75;11.88;;;16.00;99.90;;;;;;5012003;28;20026;-67
2022/07/09 03:49:28;;;;;;;16.77;12.82;;;16.30;99.90;;;;;;5012595;28;20215;-67
2022/07/09 03:51:54;;;;;;;13.70;12.30;;;16.20;99.90;;;;;;5012121;28;20105;-67
2022/07/09 03:54:20;;;;;;;15.90;13.65;;;16.20;99.90;;;;;;5011904;28;20025;-67
2022/07/09 03:56:45;;;;;;;14.25;12.75;;;16.20;99.90;;;;;;5011944;28;20525;-67
2022/07/09 03:59:11;;;;;;;15.27;13.77;;;16.30;99.90;;;;;;5011347;28;20499;-67
2022/07/09 04:01:36;;;;;;;15.73;13.85;;;16.30;99.90;;;;;;5011857;28;20479;-66
2022/07/09 04:04:02;;;;;;;14.43;13.02;;;16.30;99.90;;;;;;5010301;28;20061;-67
2022/07/09 04:06:27;;;;;;;15.82;13.18;;;16.40;99.90;;;;;;5011939;28;20039;-67
2022/07/09 04:08:53;;;;;;;17.63;14.02;;;16.40;99.90;;;;;;5010458;28;20499;-67
2022/07/09 04:11:18;;;;;;;15.30;13.70;;;16.40;99.90;;;;;;5011580;28;20065;-67
2022/07/09 04:13:44;;;;;;;17.83;15.65;;;16.50;99.90;;;;;;5011174;28;20037;-67
2022/07/09 04:16:09;;;;;;;16.73;14.80;;;16.60;99.90;;;;;;5011604;28;20026;-67
2022/07/09 04:18:35;;;;;;;16.17;14.32;;;17.10;99.90;;;;;;5011526;28;20053;-67
2022/07/09 04:21:01;;;;;;;17.58;14.55;;;16.80;99.90;;;;;;5011309;28;20060;-67
2022/07/09 04:23:27;;;;;;;21.52;16.33;;;16.50;99.90;;;;;;5008071;28;20101;-66
2022/07/09 04:25:53;;;;;;;18.60;15.85;;;16.30;99.90;;;;;;5006327;28;20030;-66
2022/07/09 04:28:19;;;;;;;19.58;15.35;;;16.60;99.90;;;;;;5010192;28;20065;-67
2022/07/09 04:30:47;;;;;;;19.75;15.60;;;16.60;99.90;;;;;;5006845;28;20033;-67
2022/07/09 04:33:13;;;;;;;17.45;15.60;;;16.70;99.90;;;;;;5012254;28;20022;-67
2022/07/09 04:35:39;;;;;;;18.02;14.95;;;16.70;99.90;;;;;;4993600;28;20503;-67
2022/07/09 04:38:05;;;;;;;15.68;13.68;;;16.80;99.90;;;;;;5010932;28;20109;-67
2022/07/09 04:40:30;;;;;;;17.40;15.50;;;16.70;99.90;;;;;;5011180;28;20033;-67
2022/07/09 04:42:56;;;;;;;13.57;12.02;;;16.60;99.90;;;;;;5010240;28;20026;-67
2022/07/09 04:45:22;;;;;;;14.20;12.45;;;16.60;99.90;;;;;;5010852;28;20041;-67
2022/07/09 04:47:47;;;;;;;14.30;12.48;;;16.60;99.90;;;;;;5011200;28;20073;-67
2022/07/09 04:50:13;;;;;;;16.73;13.35;;;16.50;99.90;;;;;;5010696;28;20489;-67
2022/07/09 04:52:39;;;;;;;18.85;14.13;;;16.50;99.90;;;;;;5011105;28;20069;-67
2022/07/09 04:55:07;;;;;;;18.80;14.23;;;16.50;99.90;;;;;;5010765;28;20033;-67
2022/07/09 04:57:33;;;;;;;16.73;15.00;;;16.50;99.90;;;;;;5010564;28;20026;-67
2022/07/09 05:00:03;;;;;;;19.30;15.95;;;16.50;99.90;;;;;;5010635;28;20026;-67
2022/07/09 05:02:28;;;;;;;16.08;13.80;;;17.30;99.90;;;;;;5011088;28;20030;-67
2022/07/09 05:04:54;;;;;;;15.20;13.07;;;16.80;99.90;;;;;;5010480;28;20494;-67
2022/07/09 05:07:19;;;;;;;13.70;12.40;;;16.80;99.90;;;;;;5010511;28;20478;-67
2022/07/09 05:09:45;;;;;;;13.90;12.40;;;17.10;99.90;;;;;;5011583;28;20041;-67
2022/07/09 05:12:11;;;;;;;14.85;12.80;;;17.20;99.90;;;;;;5009677;28;20030;-67
2022/07/09 05:14:37;;;;;;;16.95;12.52;;;17.40;99.90;;;;;;5009482;28;20129;-67
2022/07/09 05:17:04;;;;;;;16.95;14.20;;;17.30;99.90;;;;;;5009926;28;20022;-67
2022/07/09 05:19:29;;;;;;;17.10;14.43;;;17.40;99.90;;;;;;5011906;28;20124;-67
2022/07/09 05:21:55;;;;;;;15.38;13.75;;;17.40;99.90;;;;;;5010288;28;20148;-67
2022/07/09 05:24:20;;;;;;;17.80;15.65;;;17.50;99.90;;;;;;5010084;28;20092;-67
2022/07/09 05:26:46;;;;;;;15.30;13.75;;;17.50;99.90;;;;;;5009460;28;20022;-67
2022/07/09 05:29:12;;;;;;;19.08;17.05;;;17.90;99.90;;;;;;5010338;28;20073;-67
2022/07/09 05:31:38;;;;;;;18.60;15.25;;;17.70;99.90;;;;;;5010107;28;20522;-67
2022/07/09 05:34:05;;;;;;;24.98;17.65;;;17.60;99.90;;;;;;5010048;28;20021;-67
2022/07/09 05:36:31;;;;;;;20.95;18.08;;;17.60;99.90;;;;;;5010308;28;20523;-67
2022/07/09 05:38:57;;;;;;;21.20;18.42;;;17.60;99.90;;;;;;5009444;28;20109;-67
2022/07/09 05:41:24;;;;;;;25.05;18.52;;;17.60;99.90;;;;;;5009855;28;20060;-67
2022/07/09 05:43:50;;;;;;;18.38;16.48;;;17.80;99.90;;;;;;5009680;28;20534;-67
2022/07/09 05:46:15;;;;;;;22.10;18.00;;;17.70;99.90;;;;;;5010097;28;20098;-67
2022/07/09 05:48:41;;;;;;;21.70;17.92;;;17.70;99.90;;;;;;5009693;28;20057;-67
2022/07/09 05:51:06;;;;;;;20.52;17.17;;;17.70;99.90;;;;;;5009658;28;20029;-67
2022/07/09 05:53:32;;;;;;;25.85;18.80;;;17.90;99.90;;;;;;5009470;28;20026;-67
2022/07/09 05:55:57;;;;;;;20.27;18.08;;;18.00;99.90;;;;;;5009156;28;20029;-66
2022/07/09 05:58:23;;;;;;;21.38;16.70;;;18.10;99.90;;;;;;5009612;28;20025;-67
2022/07/09 06:00:48;;;;;;;22.58;16.48;;;19.00;99.90;;;;;;5009729;28;20034;-67
2022/07/09 06:03:14;;;;;;;20.23;16.77;;;18.30;99.90;;;;;;5009414;28;20069;-67
2022/07/09 06:05:39;;;;;;;17.60;15.73;;;18.50;99.90;;;;;;5009624;28;20050;-67
2022/07/09 06:08:05;;;;;;;18.73;15.02;;;18.50;99.90;;;;;;5007562;28;20419;-67
2022/07/09 06:10:30;;;;;;;24.35;18.05;;;19.40;99.90;;;;;;5009646;28;20036;-67
2022/07/09 06:12:56;;;;;;;17.80;15.98;;;18.70;99.90;;;;;;5009614;28;20033;-67
2022/07/09 06:15:22;;;;;;;19.58;16.48;;;18.80;99.90;;;;;;5009357;28;20022;-67
2022/07/09 06:17:50;;;;;;;21.98;17.65;;;18.90;99.90;;;;;;5009499;28;20053;-67
2022/07/09 06:20:16;;;;;;;20.35;17.02;;;19.00;99.90;;;;;;5009011;28;20383;-67
2022/07/09 06:22:41;;;;;;;21.52;17.08;;;19.20;99.90;;;;;;5008745;28;20111;-67
2022/07/09 06:25:08;;;;;;;17.67;15.85;;;19.20;99.90;;;;;;5007411;28;20084;-67
2022/07/09 06:27:34;;;;;;;18.75;15.88;;;19.30;99.90;;;;;;5009141;28;20018;-67
2022/07/09 06:30:00;;;;;;;21.42;16.17;;;19.40;99.90;;;;;;5009198;28;20026;-67
2022/07/09 06:32:25;;;;;;;19.38;17.30;;;19.50;99.90;;;;;;5009255;28;20037;-67
2022/07/09 06:34:51;;;;;;;20.77;18.33;;;19.60;99.90;;;;;;5009224;28;20101;-67
2022/07/09 06:37:16;;;;;;;20.55;16.63;;;19.60;99.90;;;;;;5009030;28;20064;-67
2022/07/09 06:39:44;;;;;;;18.30;16.27;;;20.10;99.90;;;;;;5009192;28;20107;-67
2022/07/09 06:42:11;;;;;;;18.45;14.98;;;19.60;99.90;;;;;;5009102;28;20029;-67
2022/07/09 06:44:37;;;;;;;18.05;16.27;;;19.60;99.90;;;;;;5009225;28;20042;-67
2022/07/09 06:47:03;;;;;;;20.98;16.63;;;20.40;99.90;;;;;;5008917;28;20026;-67
2022/07/09 06:49:29;;;;;;;15.77;14.15;;;19.80;99.90;;;;;;5009240;28;20034;-67
2022/07/09 06:51:55;;;;;;;18.33;15.45;;;19.90;99.90;;;;;;5008569;28;20113;-67
2022/07/09 06:54:20;;;;;;;17.52;15.65;;;20.00;99.90;;;;;;5008485;28;20148;-67
2022/07/09 06:56:46;;;;;;;17.13;15.32;;;20.20;99.90;;;;;;5008715;28;20066;-67
2022/07/09 06:59:12;;;;;;;14.27;12.63;;;20.30;99.90;;;;;;5008754;28;20065;-67
2022/07/09 07:01:38;;;;;;;17.98;13.43;;;20.30;99.90;;;;;;5008710;28;20041;-67
2022/07/09 07:04:04;;;;;;;13.75;11.85;;;20.30;99.90;;;;;;5008937;28;20026;-67
2022/07/09 07:06:29;;;;;;;14.57;12.82;;;20.30;99.90;;;;;;5008369;28;20557;-67
2022/07/09 07:08:55;;;;;;;15.40;11.95;;;20.40;99.90;;;;;;5010124;28;20041;-67
2022/07/09 07:11:20;;;;;;;15.30;13.77;;;20.30;99.90;;;;;;5012421;28;20418;-67
2022/07/09 07:13:46;;;;;;;13.32;11.93;;;20.20;99.90;;;;;;5012595;28;20112;-67
2022/07/09 07:16:12;;;;;;;13.63;11.55;;;20.50;99.90;;;;;;5012340;28;20041;-67
2022/07/09 07:18:37;;;;;;;13.38;12.05;;;20.50;99.90;;;;;;5012483;28;20109;-67
2022/07/09 07:21:03;;;;;;;14.15;12.82;;;20.70;99.90;;;;;;5011551;28;20495;-67
2022/07/09 07:23:31;;;;;;;13.00;11.70;;;20.50;99.90;;;;;;5012196;28;20038;-67
2022/07/09 07:26:00;;;;;;;12.20;10.95;;;21.30;99.90;;;;;;5012262;28;20038;-67
2022/07/09 07:28:25;;;;;;;12.52;11.20;;;20.50;99.90;;;;;;4995038;28;20037;-67
2022/07/09 07:30:51;;;;;;;11.70;10.60;;;20.50;99.90;;;;;;5012284;28;20435;-67
2022/07/09 07:33:16;;;;;;;12.98;10.88;;;20.70;99.90;;;;;;5012136;28;20022;-67
2022/07/09 07:35:44;;;;;;;11.60;9.98;;;20.60;99.90;;;;;;5011519;28;20041;-67
2022/07/09 07:38:09;;;;;;;10.88;9.88;;;20.70;99.90;;;;;;5012081;28;20022;-67
2022/07/09 07:40:36;;;;;;;8.35;7.55;;;20.80;99.90;;;;;;5011888;28;20095;-66
2022/07/09 07:43:02;;;;;;;11.55;7.70;;;20.90;99.90;;;;;;5011781;28;20033;-67
2022/07/09 07:45:27;;;;;;;7.82;6.18;;;21.00;99.90;;;;;;5012180;28;20037;-67
2022/07/09 07:47:54;;;;;;;8.48;7.68;;;21.10;99.90;;;;;;5011759;28;20157;-67
2022/07/09 07:50:20;;;;;;;8.20;6.88;;;21.00;99.90;;;;;;5011337;28;20435;-67
2022/07/09 07:52:46;;;;;;;7.57;6.35;;;21.40;99.90;;;;;;5011705;28;20490;-67
2022/07/09 07:55:11;;;;;;;10.68;6.97;;;21.40;99.90;;;;;;5011575;28;20025;-67
2022/07/09 07:57:37;;;;;;;7.93;6.80;;;21.70;99.90;;;;;;5011947;28;20026;-67
2022/07/09 08:00:04;;;;;;;10.10;5.90;;;21.40;99.90;;;;;;5011545;28;20030;-67
2022/07/09 08:02:30;;;;;;;9.18;6.00;;;22.10;99.90;;;;;;5011552;28;20022;-67
2022/07/09 08:04:56;;;;;;;6.22;5.63;;;22.20;99.90;;;;;;5010697;28;20041;-67
2022/07/09 08:07:21;;;;;;;7.47;6.72;;;22.30;99.70;;;;;;5011261;28;20022;-67
2022/07/09 08:09:47;;;;;;;7.03;6.28;;;22.30;99.60;;;;;;5011276;28;20041;-67
2022/07/09 08:12:12;;;;;;;9.27;6.15;;;22.30;99.40;;;;;;5011161;28;20033;-67
2022/07/09 08:14:38;;;;;;;9.05;6.88;;;22.50;99.40;;;;;;5011410;28;20026;-67
2022/07/09 08:17:03;;;;;;;7.80;6.40;;;22.60;99.10;;;;;;5011084;28;20411;-67
2022/07/09 08:19:29;;;;;;;6.65;5.60;;;22.90;99.00;;;;;;5009694;28;20049;-67
2022/07/09 08:21:55;;;;;;;7.68;6.88;;;22.80;98.90;;;;;;5011215;28;20098;-67
2022/07/09 08:24:20;;;;;;;7.78;6.97;;;23.00;98.50;;;;;;5011111;28;20096;-67
2022/07/09 08:26:46;;;;;;;6.00;5.40;;;22.90;98.20;;;;;;5010631;28;20018;-67
2022/07/09 08:29:11;;;;;;;7.60;6.70;;;23.00;98.30;;;;;;5011204;28;20033;-67
2022/07/09 08:31:37;;;;;;;8.63;6.97;;;23.00;98.10;;;;;;5011011;28;20438;-67
2022/07/09 08:34:02;;;;;;;7.28;5.40;;;23.10;97.90;;;;;;5010157;28;20021;-67
2022/07/09 08:36:28;;;;;;;6.90;6.05;;;23.10;97.80;;;;;;5010951;28;20038;-67
2022/07/09 08:38:54;;;;;;;6.68;6.07;;;23.30;97.80;;;;;;5010966;28;20100;-67
2022/07/09 08:41:22;;;;;;;6.68;5.97;;;23.20;97.60;;;;;;5010841;28;20033;-67
2022/07/09 08:43:51;;;;;;;8.20;5.57;;;23.40;97.80;;;;;;5010734;28;20463;-67
2022/07/09 08:46:18;;;;;;;6.90;5.88;;;23.20;97.90;;;;;;5010623;28;20109;-68
2022/07/09 08:48:44;;;;;;;7.38;6.38;;;23.50;97.50;;;;;;5010040;28;20422;-67
2022/07/09 08:51:11;;;;;;;8.18;6.45;;;23.60;97.10;;;;;;5010851;28;20030;-67
2022/07/09 08:53:42;;;;;;;7.60;6.82;;;23.60;96.70;;;;;;5010735;28;20022;-71
2022/07/09 08:56:08;;;;;;;9.00;6.28;;;23.60;96.80;;;;;;5010639;28;20018;-71
2022/07/09 08:58:34;;;;;;;6.85;6.15;;;23.50;96.40;;;;;;5010648;28;20529;-71
2022/07/09 09:01:00;;;;;;;6.63;5.80;;;23.70;96.40;;;;;;5010505;28;20026;-72
2022/07/09 09:03:26;;;;;;;7.55;6.82;;;23.50;96.30;;;;;;5010280;28;20487;-71
2022/07/09 09:06:05;;;;;;;6.65;5.90;;;23.50;96.40;;;;;;5010419;28;20044;-72
2022/07/09 09:08:36;;;;;;;8.10;6.85;;;23.40;96.80;;;;;;5010493;28;20153;-71
2022/07/09 09:11:06;;;;;;;9.15;6.80;;;23.30;96.90;;;;;;5010238;28;20144;-72
2022/07/09 09:13:39;;;;;;;8.15;6.18;;;23.10;96.90;;;;;;5010357;28;20479;-72
2022/07/09 09:16:06;;;;;;;7.35;6.60;;;23.00;97.10;;;;;;5010127;28;20502;-71
2022/07/09 09:18:35;;;;;;;10.63;7.07;;;22.80;97.10;;;;;;5009877;28;20871;-72
2022/07/09 09:21:05;;;;;;;9.80;8.35;;;23.00;97.40;;;;;;5010035;28;20065;-72
2022/07/09 09:23:39;;;;;;;9.05;8.15;;;22.90;97.40;;;;;;5010346;28;20586;-71
2022/07/09 09:26:26;;;;;;;8.02;7.43;;;23.00;97.40;;;;;;5010068;28;20075;-72
2022/07/09 09:28:56;;;;;;;11.07;9.70;;;25.70;97.90;;;;;;5010141;28;20022;-72
2022/07/09 09:31:25;;;;;;;9.48;8.13;;;23.10;96.20;;;;;;5008668;28;20018;-72
2022/07/09 09:33:52;;;;;;;11.27;8.73;;;23.20;96.90;;;;;;5009713;28;20018;-71
2022/07/09 09:36:27;;;;;;;10.30;7.78;;;23.20;96.50;;;;;;5009890;28;20018;-71
2022/07/09 09:38:52;;;;;;;8.13;7.35;;;23.30;96.70;;;;;;5009658;28;20375;-71
2022/07/09 09:41:22;;;;;;;9.10;8.18;;;23.30;96.20;;;;;;5009895;28;20029;-72
2022/07/09 09:43:49;;;;;;;9.18;8.27;;;23.60;96.30;;;;;;5009649;28;20050;-71
2022/07/09 09:46:16;;;;;;;10.05;7.25;;;23.50;96.20;;;;;;5009260;28;20064;-72
2022/07/09 09:48:42;;;;;;;9.70;8.70;;;23.50;96.10;;;;;;5009574;28;20021;-71
2022/07/09 09:51:10;;;;;;;9.50;8.50;;;23.50;96.00;;;;;;4991747;28;20037;-71
2022/07/09 09:53:38;;;;;;;10.05;9.05;;;23.40;96.20;;;;;;5009443;28;20065;-71
2022/07/09 09:56:04;;;;;;;11.15;10.05;;;23.30;96.20;;;;;;5009201;28;20076;-71
2022/07/09 09:58:31;;;;;;;9.40;8.65;;;23.30;96.30;;;;;;5009723;28;20088;-72
2022/07/09 10:00:56;;;;;;;9.70;8.85;;;23.30;96.60;;;;;;5008922;28;20475;-72
2022/07/09 10:03:22;;;;;;;12.50;10.25;;;23.30;96.40;;;;;;5009328;28;20071;-72
2022/07/09 10:05:50;;;;;;;10.93;9.73;;;23.30;96.30;;;;;;5009233;28;20046;-72
2022/07/09 10:08:16;;;;;;;9.38;7.38;;;23.50;96.10;;;;;;5009266;28;20545;-72
2022/07/09 10:10:50;;;;;;;9.50;8.25;;;23.50;96.10;;;;;;5009311;28;20492;-72
2022/07/09 10:13:23;;;;;;;9.55;7.97;;;23.30;96.70;;;;;;5009159;28;20160;-71
2022/07/09 10:15:49;;;;;;;7.25;6.68;;;23.10;96.00;;;;;;5008860;28;20018;-71
2022/07/09 10:18:17;;;;;;;8.23;7.30;;;23.80;97.00;;;;;;5008997;28;20121;-71
2022/07/09 10:20:44;;;;;;;6.22;5.72;;;22.80;97.10;;;;;;5009177;28;20099;-71
2022/07/09 10:23:23;;;;;;;5.28;4.60;;;23.90;97.00;;;;;;5009179;28;20030;-72
2022/07/09 10:25:52;;;;;;;4.50;3.42;;;22.70;96.00;;;;;;4997321;28;20149;-71
2022/07/09 10:28:19;;;;;;;3.58;2.47;;;22.80;96.30;;;;;;5009126;28;20025;-71
2022/07/09 10:30:45;;;;;;;7.35;3.10;;;23.10;95.70;;;;;;5008630;28;20483;-72
2022/07/09 10:33:35;;;;;;;2.88;2.25;;;23.10;95.20;;;;;;5008983;28;20092;-72
2022/07/09 10:36:11;;;;;;;6.20;2.95;;;23.10;95.10;;;;;;5003608;28;20179;-71
2022/07/09 10:38:38;;;;;;;4.57;2.28;;;23.00;94.90;;;;;;4991397;28;20379;-71
2022/07/09 10:41:04;;;;;;;3.22;2.30;;;23.00;94.70;;;;;;5008865;28;20494;-71
2022/07/09 10:43:46;;;;;;;2.08;1.83;;;22.90;94.50;;;;;;5011024;28;20030;-71
2022/07/09 10:46:13;;;;;;;2.40;2.17;;;23.10;94.00;;;;;;5013241;28;20414;-71
2022/07/09 10:48:39;;;;;;;3.88;2.17;;;24.10;94.70;;;;;;5013108;28;20029;-71
2022/07/09 10:51:05;;;;;;;1.95;1.50;;;23.80;94.50;;;;;;4994886;28;20556;-71
2022/07/09 10:53:30;;;;;;;3.30;1.70;;;23.20;94.30;;;;;;5013046;28;20057;-71
2022/07/09 10:55:56;;;;;;;3.63;1.80;;;23.40;94.20;;;;;;5012874;28;20022;-72
2022/07/09 10:58:24;;;;;;;1.30;0.93;;;23.00;94.00;;;;;;5012264;28;20026;-71
2022/07/09 11:01:01;;;;;;;1.85;0.95;;;23.00;94.30;;;;;;5012855;28;20050;-72
2022/07/09 11:03:28;;;;;;;3.15;1.23;;;23.00;93.70;;;;;;5012952;28;20022;-71
2022/07/09 11:05:54;;;;;;;2.17;1.15;;;22.90;94.10;;;;;;5012751;28;20038;-72
2022/07/09 11:08:20;;;;;;;4.68;1.20;;;22.90;93.90;;;;;;5012580;28;20022;-72
2022/07/09 11:10:45;;;;;;;1.40;0.85;;;23.50;93.80;;;;;;5012760;28;20460;-71
2022/07/09 11:13:11;;;;;;;1.52;1.10;;;23.20;93.40;;;;;;5012239;28;20158;-70
2022/07/09 11:15:38;;;;;;;2.30;1.30;;;23.70;93.20;;;;;;5012826;28;20054;-69
2022/07/09 11:18:11;;;;;;;1.67;1.10;;;25.00;93.40;;;;;;4992052;28;20054;-71
2022/07/09 11:20:44;;;;;;;1.30;1.00;;;23.70;91.90;;;;;;5010885;28;20100;-71
2022/07/09 11:23:11;;;;;;;1.08;0.63;;;23.50;92.80;;;;;;5012284;28;20033;-71
2022/07/09 11:25:36;;;;;;;1.42;1.00;;;23.40;92.90;;;;;;5012106;28;20061;-72
2022/07/09 11:28:03;;;;;;;5.82;1.05;;;23.30;92.70;;;;;;5011700;28;20506;-71
2022/07/09 11:30:30;;;;;;;1.70;0.95;;;23.30;92.80;;;;;;5010910;28;20487;-71
2022/07/09 11:32:56;;;;;;;1.15;0.70;;;23.40;92.80;;;;;;5012612;28;20426;-71
2022/07/09 11:35:33;;;;;;;2.35;1.20;;;23.40;92.50;;;;;;5011654;28;20435;-71
2022/07/09 11:38:04;;;;;;;1.83;0.93;;;23.40;92.80;;;;;;5011921;28;20029;-71
2022/07/09 11:40:30;;;;;;;2.00;0.80;;;23.30;91.70;;;;;;5012130;28;20030;-71
2022/07/09 11:42:57;;;;;;;2.38;0.90;;;24.00;92.50;;;;;;5011465;28;20030;-71
2022/07/09 11:45:29;;;;;;;2.45;0.77;;;23.10;92.20;;;;;;5011683;28;20088;-71
2022/07/09 11:48:10;;;;;;;3.00;0.75;;;23.30;92.70;;;;;;5011513;28;20097;-71
2022/07/09 11:50:45;;;;;;;1.50;0.80;;;24.40;92.60;;;;;;5011687;28;20372;-71
2022/07/09 11:53:25;;;;;;;1.77;0.65;;;23.40;91.30;;;;;;5011589;28;20494;-71
2022/07/09 11:56:00;;;;;;;3.70;1.05;;;24.40;92.20;;;;;;5010724;28;20032;-71
2022/07/09 11:58:26;;;;;;;0.80;0.70;;;23.70;91.40;;;;;;5011783;28;20482;-71
2022/07/09 12:00:51;;;;;;;2.30;0.95;;;24.40;91.10;;;;;;5011631;28;20038;-71
2022/07/09 12:03:24;;;;;;;2.90;0.77;;;23.50;90.80;;;;;;5011288;28;20022;-71
2022/07/09 12:05:50;;;;;;;1.50;0.60;;;23.50;91.00;;;;;;5011477;28;20099;-71
2022/07/09 12:08:30;;;;;;;1.73;0.70;;;23.40;91.00;;;;;;5011247;28;20022;-71
2022/07/09 12:10:56;;;;;;;2.55;0.60;;;23.20;91.20;;;;;;5010983;28;20025;-71
2022/07/09 12:13:21;;;;;;;1.67;0.80;;;25.00;91.30;;;;;;5011070;28;20631;-71
2022/07/09 12:15:47;;;;;;;3.03;0.50;;;23.50;90.60;;;;;;5010930;28;20056;-71
2022/07/09 12:18:12;;;;;;;3.28;0.75;;;24.60;90.70;;;;;;5011032;28;20045;-71
2022/07/09 12:20:38;;;;;;;1.98;1.10;;;24.70;90.80;;;;;;5011091;28;20507;-71
2022/07/09 12:23:04;;;;;;;3.38;0.82;;;23.30;90.20;;;;;;5010431;28;20033;-71
2022/07/09 12:25:29;;;;;;;2.78;0.85;;;23.40;90.20;;;;;;5010138;28;20104;-69
2022/07/09 12:27:55;;;;;;;1.58;0.80;;;23.40;90.20;;;;;;5010133;28;20026;-69
2022/07/09 12:30:21;;;;;;;3.35;0.93;;;23.30;90.30;;;;;;5010873;28;20021;-69
2022/07/09 12:32:47;;;;;;;1.67;0.68;;;23.50;90.40;;;;;;5010502;28;20014;-70
2022/07/09 12:35:13;;;;;;;1.15;0.68;;;23.60;90.20;;;;;;5016222;28;20033;-71